createdAt,value
2022-12-15T00:00:17.690Z,-5.60
2022-12-15T00:04:37.987Z,-5.60
2022-12-15T00:08:58.611Z,-5.60
2022-12-15T00:13:18.630Z,-5.60
2022-12-15T00:17:40.598Z,-5.60
2022-12-15T00:22:00.652Z,-5.60
2022-12-15T00:26:20.678Z,-5.70
2022-12-15T00:30:40.920Z,-5.70
2022-12-15T00:35:02.227Z,-5.80
2022-12-15T00:39:05.238Z,-5.80
2022-12-15T00:43:12.078Z,-5.80
2022-12-15T00:47:15.083Z,-5.80
2022-12-15T00:51:19.719Z,-5.80
2022-12-15T00:55:39.895Z,-5.80
2022-12-15T01:00:00.023Z,-5.80
2022-12-15T01:04:20.156Z,-5.90
2022-12-15T01:08:41.982Z,-5.80
2022-12-15T01:13:02.769Z,-5.80
2022-12-15T01:17:23.436Z,-5.80
2022-12-15T01:21:26.286Z,-5.80
2022-12-15T01:25:30.502Z,-5.80
2022-12-15T01:29:33.393Z,-5.80
2022-12-15T01:33:36.231Z,-5.80
2022-12-15T01:37:39.139Z,-5.80
2022-12-15T01:41:43.376Z,-5.80
2022-12-15T01:45:48.465Z,-5.80
2022-12-15T01:49:52.415Z,-5.70
2022-12-15T01:53:59.141Z,-5.70
2022-12-15T01:58:07.189Z,-5.60
2022-12-15T02:02:10.833Z,-5.50
2022-12-15T02:06:14.199Z,-5.40
2022-12-15T02:10:17.061Z,-5.40
2022-12-15T02:14:26.781Z,-5.30
2022-12-15T02:18:33.369Z,-5.20
2022-12-15T02:22:45.858Z,-5.20
2022-12-15T02:27:07.211Z,-5.20
2022-12-15T02:31:31.905Z,-5.20
2022-12-15T02:35:41.197Z,-5.20
2022-12-15T02:39:44.040Z,-5.10
2022-12-15T02:43:46.877Z,-5.10
2022-12-15T02:47:57.413Z,-5.10
2022-12-15T02:52:04.712Z,-5.10
2022-12-15T02:56:12.370Z,-5.10
2022-12-15T03:00:16.406Z,-5.10
2022-12-15T03:04:20.681Z,-5.10
2022-12-15T03:08:23.517Z,-5.10
2022-12-15T03:12:26.457Z,-5.10
2022-12-15T03:16:29.512Z,-5.10
2022-12-15T03:20:33.824Z,-5.10
2022-12-15T03:24:36.741Z,-5.10
2022-12-15T03:28:39.653Z,-5.10
2022-12-15T03:32:42.497Z,-5.10
2022-12-15T03:36:46.801Z,-5.10
2022-12-15T03:40:49.641Z,-5.00
2022-12-15T03:44:52.559Z,-5.00
2022-12-15T03:48:55.676Z,-5.10
2022-12-15T03:53:02.464Z,-5.00
2022-12-15T03:57:06.142Z,-5.00
2022-12-15T04:01:12.703Z,-4.90
2022-12-15T04:05:16.566Z,-4.90
2022-12-15T04:09:20.864Z,-4.90
2022-12-15T04:13:23.703Z,-4.90
2022-12-15T04:17:26.551Z,-4.90
2022-12-15T04:21:29.413Z,-4.90
2022-12-15T04:25:50.973Z,-5.00
2022-12-15T04:30:11.146Z,-5.00
2022-12-15T04:34:32.591Z,-5.00
2022-12-15T04:38:53.236Z,-5.00
2022-12-15T04:43:15.266Z,-5.00
2022-12-15T04:47:35.335Z,-5.00
2022-12-15T04:51:55.557Z,-5.00
2022-12-15T04:56:18.682Z,-5.00
2022-12-15T05:00:40.590Z,-4.90
2022-12-15T05:05:00.718Z,-4.90
2022-12-15T05:09:21.432Z,-4.90
2022-12-15T05:13:41.597Z,-4.90
2022-12-15T05:18:02.936Z,-4.90
2022-12-15T05:22:23.047Z,-4.90
2022-12-15T05:26:44.686Z,-4.90
2022-12-15T05:31:08.282Z,-4.80
2022-12-15T05:35:12.586Z,-4.80
2022-12-15T05:39:15.610Z,-4.70
2022-12-15T05:43:24.625Z,-4.70
2022-12-15T05:47:29.104Z,-4.70
2022-12-15T05:51:33.347Z,-4.60
2022-12-15T05:55:36.184Z,-4.60
2022-12-15T05:59:39.045Z,-4.60
2022-12-15T06:03:42.374Z,-4.60
2022-12-15T06:07:46.581Z,-4.60
2022-12-15T06:11:49.471Z,-4.60
2022-12-15T06:15:55.929Z,-4.60
2022-12-15T06:19:58.792Z,-4.60
2022-12-15T06:24:03.598Z,-4.60
2022-12-15T06:28:06.546Z,-4.60
2022-12-15T06:32:09.391Z,-4.60
2022-12-15T06:36:13.136Z,-4.60
2022-12-15T06:40:17.471Z,-4.50
2022-12-15T06:44:20.761Z,-4.50
2022-12-15T06:48:24.332Z,-4.50
2022-12-15T06:52:27.258Z,-4.50
2022-12-15T06:56:34.693Z,-4.40
2022-12-15T07:00:38.236Z,-4.40
2022-12-15T07:04:41.089Z,-4.30
2022-12-15T07:08:44.717Z,-4.30
2022-12-15T07:12:49.005Z,-4.30
2022-12-15T07:16:51.857Z,-4.30
2022-12-15T07:20:54.755Z,-4.30
2022-12-15T07:24:57.614Z,-4.30
2022-12-15T07:29:01.925Z,-4.30
2022-12-15T07:33:04.898Z,-4.20
2022-12-15T07:37:07.932Z,-4.20
2022-12-15T07:41:10.781Z,-4.20
2022-12-15T07:45:15.332Z,-4.20
2022-12-15T07:49:18.688Z,-4.20
2022-12-15T07:53:21.517Z,-4.20
2022-12-15T07:57:24.663Z,-4.10
2022-12-15T08:01:28.970Z,-4.10
2022-12-15T08:05:31.955Z,-4.00
2022-12-15T08:09:34.793Z,-4.00
2022-12-15T08:18:02.570Z,-3.90
2022-12-15T08:22:05.411Z,-3.80
2022-12-15T08:26:09.327Z,-3.80
2022-12-15T08:30:12.433Z,-3.70
2022-12-15T08:34:16.733Z,-3.60
2022-12-15T08:38:19.544Z,-3.50
2022-12-15T08:42:22.385Z,-3.40
2022-12-15T08:46:26.753Z,-3.30
2022-12-15T08:50:34.042Z,-3.10
2022-12-15T08:54:36.909Z,-3.10
2022-12-15T08:58:40.111Z,-2.90
2022-12-15T09:02:42.995Z,-2.60
2022-12-15T09:06:48.541Z,-1.80
2022-12-15T09:10:53.798Z,-1.50
2022-12-15T09:14:56.655Z,-0.80
2022-12-15T09:19:00.259Z,0.00
2022-12-15T09:23:04.461Z,0.40
2022-12-15T09:27:07.912Z,0.70
2022-12-15T09:31:11.610Z,1.10
2022-12-15T09:35:14.585Z,1.40
2022-12-15T09:43:44.531Z,1.80
2022-12-15T09:51:54.023Z,2.00
2022-12-15T09:56:00.128Z,2.30
2022-12-15T10:00:13.264Z,2.80
2022-12-15T10:04:21.171Z,3.40
2022-12-15T10:08:24.734Z,4.10
2022-12-15T10:12:30.360Z,4.70
2022-12-15T10:16:37.596Z,5.40
2022-12-15T10:20:40.780Z,6.00
2022-12-15T10:29:15.056Z,7.20
2022-12-15T10:33:20.748Z,7.70
2022-12-15T10:37:24.383Z,8.10
2022-12-15T10:41:27.846Z,8.50
2022-12-15T10:45:33.165Z,8.90
2022-12-15T10:49:37.352Z,9.20
2022-12-15T10:53:41.245Z,9.80
2022-12-15T10:57:58.307Z,9.90
2022-12-15T11:02:22.809Z,10.10
2022-12-15T11:06:29.483Z,10.30
2022-12-15T11:10:54.251Z,10.40
2022-12-15T11:14:57.085Z,11.00
2022-12-15T11:19:02.099Z,10.90
2022-12-15T11:23:09.729Z,11.10
2022-12-15T11:27:16.681Z,10.90
2022-12-15T11:31:24.176Z,10.50
2022-12-15T11:35:29.258Z,9.90
2022-12-15T11:39:42.984Z,9.40
2022-12-15T11:44:00.980Z,8.80
2022-12-15T11:48:11.818Z,8.60
2022-12-15T11:52:20.687Z,8.80
2022-12-15T11:56:28.275Z,9.10
2022-12-15T12:00:32.196Z,9.50
2022-12-15T12:04:39.775Z,9.90
2022-12-15T12:08:51.151Z,10.30
2022-12-15T12:13:01.674Z,10.90
2022-12-15T12:17:07.340Z,11.20
2022-12-15T12:21:11.739Z,11.30
2022-12-15T12:25:16.433Z,11.50
2022-12-15T12:29:22.414Z,11.80
2022-12-15T12:33:29.511Z,11.90
2022-12-15T12:37:33.986Z,12.00
2022-12-15T12:41:39.508Z,12.20
2022-12-15T12:45:50.344Z,12.20
2022-12-15T12:49:55.724Z,11.80
2022-12-15T12:53:59.178Z,11.20
2022-12-15T12:58:02.127Z,10.40
2022-12-15T13:02:24.709Z,9.60
2022-12-15T13:06:42.874Z,8.80
2022-12-15T13:10:48.208Z,8.00
2022-12-15T13:14:55.379Z,7.20
2022-12-15T13:18:59.408Z,6.60
2022-12-15T13:23:20.866Z,6.00
2022-12-15T13:27:26.712Z,5.60
2022-12-15T13:31:43.101Z,5.20
2022-12-15T13:35:47.184Z,4.90
2022-12-15T13:39:53.690Z,4.60
2022-12-15T13:43:58.965Z,4.40
2022-12-15T13:48:02.233Z,4.30
2022-12-15T13:52:12.295Z,4.20
2022-12-15T13:56:22.451Z,4.20
2022-12-15T14:00:26.647Z,4.00
2022-12-15T14:04:29.573Z,3.90
2022-12-15T14:08:32.464Z,3.80
2022-12-15T14:12:35.310Z,3.60
2022-12-15T14:16:39.699Z,3.40
2022-12-15T14:20:44.403Z,3.30
2022-12-15T14:24:49.219Z,3.20
2022-12-15T14:29:00.073Z,3.10
2022-12-15T14:33:17.118Z,3.00
2022-12-15T14:37:21.188Z,2.90
2022-12-15T14:41:25.501Z,2.80
2022-12-15T14:45:29.565Z,2.70
2022-12-15T14:49:37.307Z,2.60
2022-12-15T14:53:41.626Z,2.50
2022-12-15T14:57:45.153Z,2.50
2022-12-15T15:01:58.354Z,2.40
2022-12-15T15:06:06.298Z,2.20
2022-12-15T15:10:21.516Z,2.10
2022-12-15T15:14:26.356Z,2.00
2022-12-15T15:18:30.281Z,1.90
2022-12-15T15:22:39.745Z,1.80
2022-12-15T15:26:43.145Z,1.70
2022-12-15T15:30:48.560Z,1.60
2022-12-15T15:34:52.234Z,1.50
2022-12-15T15:38:56.734Z,1.40
2022-12-15T15:43:00.518Z,1.30
2022-12-15T15:47:03.341Z,1.30
2022-12-15T15:51:06.730Z,1.10
2022-12-15T15:55:14.293Z,1.00
2022-12-15T15:59:17.835Z,1.00
2022-12-15T16:03:20.869Z,0.90
2022-12-15T16:07:24.478Z,0.80
2022-12-15T16:11:30.110Z,0.70
2022-12-15T16:15:33.068Z,0.60
2022-12-15T16:19:39.588Z,0.60
2022-12-15T16:23:44.648Z,0.50
2022-12-15T16:27:49.067Z,0.40
2022-12-15T16:31:51.971Z,0.30
2022-12-15T16:35:55.049Z,0.30
2022-12-15T16:39:57.933Z,0.20
2022-12-15T16:44:02.296Z,0.20
2022-12-15T16:48:05.264Z,0.10
2022-12-15T16:52:09.779Z,0.10
2022-12-15T16:56:15.800Z,0.00
2022-12-15T17:00:21.617Z,-0.10
2022-12-15T17:08:30.516Z,-0.30
2022-12-15T17:16:38.117Z,-0.50
2022-12-15T17:20:41.130Z,-0.60
2022-12-15T17:24:45.766Z,-0.70
2022-12-15T17:28:48.611Z,-0.80
2022-12-15T17:32:52.826Z,-0.90
2022-12-15T17:36:55.668Z,-1.00
2022-12-15T17:40:58.586Z,-1.00
2022-12-15T17:45:01.475Z,-1.10
2022-12-15T17:49:05.925Z,-1.20
2022-12-15T17:53:12.563Z,-1.20
2022-12-15T17:57:15.401Z,-1.30
2022-12-15T18:01:18.522Z,-1.30
2022-12-15T18:05:23.826Z,-1.30
2022-12-15T18:09:27.008Z,-1.40
2022-12-15T18:13:35.026Z,-1.40
2022-12-15T18:17:38.306Z,-1.50
2022-12-15T18:21:42.501Z,-1.60
2022-12-15T18:25:45.395Z,-1.60
2022-12-15T18:29:48.266Z,-1.70
2022-12-15T18:33:51.174Z,-1.70
2022-12-15T18:37:56.565Z,-1.80
2022-12-15T18:41:59.443Z,-1.80
2022-12-15T18:46:02.332Z,-1.80
2022-12-15T18:50:05.276Z,-1.90
2022-12-15T18:54:12.213Z,-1.90
2022-12-15T18:58:22.482Z,-1.90
2022-12-15T19:02:25.458Z,-2.00
2022-12-15T19:06:34.938Z,-2.00
2022-12-15T19:10:40.727Z,-1.90
2022-12-15T19:14:43.578Z,-2.00
2022-12-15T19:19:03.969Z,-2.00
2022-12-15T19:23:07.959Z,-2.00
2022-12-15T19:27:12.656Z,-2.00
2022-12-15T19:31:15.686Z,-2.00
2022-12-15T19:35:18.557Z,-2.00
2022-12-15T19:39:23.202Z,-2.00
2022-12-15T19:43:27.722Z,-2.00
2022-12-15T19:47:30.711Z,-2.00
2022-12-15T19:51:33.850Z,-2.10
2022-12-15T19:55:36.811Z,-2.10
2022-12-15T19:59:41.052Z,-2.20
2022-12-15T20:03:45.069Z,-2.20
2022-12-15T20:07:48.269Z,-2.30
2022-12-15T20:11:51.130Z,-2.40
2022-12-15T20:15:55.744Z,-2.50
2022-12-15T20:19:58.662Z,-2.50
2022-12-15T20:24:05.220Z,-2.60
2022-12-15T20:28:11.521Z,-2.60
2022-12-15T20:32:17.013Z,-2.70
2022-12-15T20:36:21.973Z,-2.70
2022-12-15T20:40:26.351Z,-2.70
2022-12-15T20:44:29.270Z,-2.70
2022-12-15T20:48:33.910Z,-2.70
2022-12-15T20:52:36.717Z,-2.80
2022-12-15T20:56:39.556Z,-2.80
2022-12-15T21:00:42.419Z,-2.70
2022-12-15T21:04:46.939Z,-2.80
2022-12-15T21:08:50.482Z,-2.70
2022-12-15T21:12:53.306Z,-2.80
2022-12-15T21:16:56.180Z,-2.80
2022-12-15T21:21:01.301Z,-2.80
2022-12-15T21:25:04.616Z,-2.80
2022-12-15T21:29:12.717Z,-2.90
2022-12-15T21:33:15.662Z,-2.90
2022-12-15T21:37:22.948Z,-3.10
2022-12-15T21:41:26.026Z,-3.10
2022-12-15T21:45:29.027Z,-3.20
2022-12-15T21:49:32.646Z,-3.30
2022-12-15T21:53:37.074Z,-3.40
2022-12-15T21:57:40.056Z,-3.50
2022-12-15T22:01:43.169Z,-3.60
2022-12-15T22:05:46.319Z,-3.60
2022-12-15T22:09:51.809Z,-3.70
2022-12-15T22:13:56.101Z,-3.80
2022-12-15T22:17:58.987Z,-3.80
2022-12-15T22:22:01.834Z,-3.90
2022-12-15T22:26:06.335Z,-4.00
2022-12-15T22:34:17.259Z,-4.10
2022-12-15T22:38:20.874Z,-4.20
2022-12-15T22:42:25.070Z,-4.20
2022-12-15T22:46:28.060Z,-4.30
2022-12-15T22:50:31.088Z,-4.30
2022-12-15T22:54:34.095Z,-4.30
2022-12-15T22:58:40.564Z,-4.40
2022-12-15T23:02:45.299Z,-4.40
2022-12-15T23:06:48.669Z,-4.40
2022-12-15T23:11:09.058Z,-4.50
2022-12-15T23:15:45.475Z,-4.50
2022-12-15T23:19:48.403Z,-4.60
2022-12-15T23:23:51.501Z,-4.60
2022-12-15T23:27:54.535Z,-4.70
2022-12-15T23:31:59.381Z,-4.70
2022-12-15T23:36:02.851Z,-4.80
2022-12-15T23:40:06.642Z,-4.80
2022-12-15T23:44:09.497Z,-4.80
2022-12-15T23:48:15.009Z,-4.80
2022-12-15T23:52:19.832Z,-4.80
2022-12-15T23:56:24.322Z,-4.80
